logo
Search for airport 
image banner adimage banner adimage banner ad
image banner ad

YVAL - The Vale

Located in Sheffield, Australia

ICAO - , IATA -

Data provided by Airmate  

General information

Coordinates: S41°25'49" E146°15'46"
Elevation is 705 feet MSL.
Magnetic variation is 14° East
View others Airports in Tasmania

Operational data

Special qualification required
Current time UTC:
Current local time:
Weather at : YMLT - Launceston ( 80 km )
TAF: TAF YMLT 281716Z 2818/2918 34011KT 9999 FEW008 FM290100 34012KT 9999 FEW015 TEMPO 2818/2900 9999 BKN008 PROB30 2818/2823 2000 BR BKN001
View NOTAMs / SUP AIP / TFR affecting this airport [VIEW]
Communications frequencies: [VIEW]

Runways:

RWY identifierQFULength (ft)Width (ft)SurfaceLDA (ft)
064265115UNK
244265115UNK

Airport contact information

Address: Sheffield Australia

Satellite view of YVAL